sensor_id;sensor_type;location;lat;lon;timestamp;P1;durP1;ratioP1;P2;durP2;ratioP2
12970;SDS011;6550;48.650;8.774;2023-01-29T00:02:19;6.70;;;6.00;;
12970;SDS011;6550;48.650;8.774;2023-01-29T00:04:46;6.30;;;5.70;;
12970;SDS011;6550;48.650;8.774;2023-01-29T00:07:15;6.60;;;6.00;;
12970;SDS011;6550;48.650;8.774;2023-01-29T00:09:44;6.73;;;6.03;;
12970;SDS011;6550;48.650;8.774;2023-01-29T00:12:11;8.63;;;6.00;;
12970;SDS011;6550;48.650;8.774;2023-01-29T00:14:40;6.63;;;5.93;;
12970;SDS011;6550;48.650;8.774;2023-01-29T00:17:07;6.87;;;6.17;;
12970;SDS011;6550;48.650;8.774;2023-01-29T00:19:34;7.13;;;6.43;;
12970;SDS011;6550;48.650;8.774;2023-01-29T00:22:01;5.83;;;5.23;;
12970;SDS011;6550;48.650;8.774;2023-01-29T00:24:30;6.80;;;6.10;;
12970;SDS011;6550;48.650;8.774;2023-01-29T00:26:58;6.90;;;6.23;;
12970;SDS011;6550;48.650;8.774;2023-01-29T00:29:28;6.63;;;6.03;;
12970;SDS011;6550;48.650;8.774;2023-01-29T00:31:54;6.23;;;5.63;;
12970;SDS011;6550;48.650;8.774;2023-01-29T00:34:26;6.33;;;5.70;;
12970;SDS011;6550;48.650;8.774;2023-01-29T00:36:53;6.97;;;6.23;;
12970;SDS011;6550;48.650;8.774;2023-01-29T00:39:30;6.05;;;5.22;;
12970;SDS011;6550;48.650;8.774;2023-01-29T00:42:13;6.53;;;5.67;;
12970;SDS011;6550;48.650;8.774;2023-01-29T00:44:58;5.80;;;5.20;;
12970;SDS011;6550;48.650;8.774;2023-01-29T00:47:27;6.43;;;5.83;;
12970;SDS011;6550;48.650;8.774;2023-01-29T00:49:59;6.10;;;5.20;;
12970;SDS011;6550;48.650;8.774;2023-01-29T00:52:31;5.70;;;5.13;;
12970;SDS011;6550;48.650;8.774;2023-01-29T00:54:59;6.53;;;5.83;;
12970;SDS011;6550;48.650;8.774;2023-01-29T00:57:26;6.37;;;5.43;;
12970;SDS011;6550;48.650;8.774;2023-01-29T00:59:57;6.33;;;5.57;;
12970;SDS011;6550;48.650;8.774;2023-01-29T01:02:23;6.53;;;5.87;;
12970;SDS011;6550;48.650;8.774;2023-01-29T01:05:10;5.73;;;5.13;;
12970;SDS011;6550;48.650;8.774;2023-01-29T01:07:44;7.37;;;6.67;;
12970;SDS011;6550;48.650;8.774;2023-01-29T01:10:25;5.37;;;4.87;;
12970;SDS011;6550;48.650;8.774;2023-01-29T01:12:55;5.73;;;5.20;;
12970;SDS011;6550;48.650;8.774;2023-01-29T01:15:31;6.13;;;5.10;;
12970;SDS011;6550;48.650;8.774;2023-01-29T01:18:02;5.20;;;4.70;;
12970;SDS011;6550;48.650;8.774;2023-01-29T01:20:33;5.53;;;4.93;;
12970;SDS011;6550;48.650;8.774;2023-01-29T01:23:03;5.20;;;4.70;;
12970;SDS011;6550;48.650;8.774;2023-01-29T01:25:30;5.03;;;4.53;;
12970;SDS011;6550;48.650;8.774;2023-01-29T01:27:57;4.97;;;4.47;;
12970;SDS011;6550;48.650;8.774;2023-01-29T01:30:27;6.07;;;4.60;;
12970;SDS011;6550;48.650;8.774;2023-01-29T01:32:56;4.70;;;4.17;;
12970;SDS011;6550;48.650;8.774;2023-01-29T01:35:23;4.43;;;4.03;;
12970;SDS011;6550;48.650;8.774;2023-01-29T01:37:50;4.73;;;4.33;;
12970;SDS011;6550;48.650;8.774;2023-01-29T01:40:20;4.50;;;4.10;;
12970;SDS011;6550;48.650;8.774;2023-01-29T01:42:55;4.47;;;4.07;;
12970;SDS011;6550;48.650;8.774;2023-01-29T01:50:34;4.43;;;4.00;;
12970;SDS011;6550;48.650;8.774;2023-01-29T01:53:09;4.50;;;4.10;;
12970;SDS011;6550;48.650;8.774;2023-01-29T01:55:47;4.67;;;4.23;;
12970;SDS011;6550;48.650;8.774;2023-01-29T01:58:22;4.37;;;3.97;;
12970;SDS011;6550;48.650;8.774;2023-01-29T02:00:51;5.00;;;4.50;;
12970;SDS011;6550;48.650;8.774;2023-01-29T02:03:19;4.50;;;4.10;;
12970;SDS011;6550;48.650;8.774;2023-01-29T02:06:08;4.40;;;3.97;;
12970;SDS011;6550;48.650;8.774;2023-01-29T02:08:59;4.50;;;4.10;;
12970;SDS011;6550;48.650;8.774;2023-01-29T02:11:49;4.33;;;3.93;;
12970;SDS011;6550;48.650;8.774;2023-01-29T02:14:19;4.27;;;3.87;;
12970;SDS011;6550;48.650;8.774;2023-01-29T02:16:48;4.50;;;4.10;;
12970;SDS011;6550;48.650;8.774;2023-01-29T02:19:16;4.63;;;4.07;;
12970;SDS011;6550;48.650;8.774;2023-01-29T02:22:03;4.83;;;4.33;;
12970;SDS011;6550;48.650;8.774;2023-01-29T02:32:59;4.10;;;3.70;;
12970;SDS011;6550;48.650;8.774;2023-01-29T02:38:16;4.73;;;4.30;;
12970;SDS011;6550;48.650;8.774;2023-01-29T02:40:57;3.85;;;3.55;;
12970;SDS011;6550;48.650;8.774;2023-01-29T02:43:31;4.10;;;3.73;;
12970;SDS011;6550;48.650;8.774;2023-01-29T02:46:34;3.63;;;3.33;;
12970;SDS011;6550;48.650;8.774;2023-01-29T02:49:30;3.97;;;3.67;;
12970;SDS011;6550;48.650;8.774;2023-01-29T02:55:14;4.20;;;3.80;;
12970;SDS011;6550;48.650;8.774;2023-01-29T02:57:48;4.63;;;4.13;;
12970;SDS011;6550;48.650;8.774;2023-01-29T03:00:23;4.23;;;3.83;;
12970;SDS011;6550;48.650;8.774;2023-01-29T03:05:25;4.10;;;3.70;;
12970;SDS011;6550;48.650;8.774;2023-01-29T03:08:05;3.67;;;3.37;;
12970;SDS011;6550;48.650;8.774;2023-01-29T03:10:38;4.00;;;3.60;;
12970;SDS011;6550;48.650;8.774;2023-01-29T03:13:20;3.87;;;3.57;;
12970;SDS011;6550;48.650;8.774;2023-01-29T03:15:52;4.50;;;4.10;;
12970;SDS011;6550;48.650;8.774;2023-01-29T03:18:27;4.23;;;3.70;;
12970;SDS011;6550;48.650;8.774;2023-01-29T03:21:07;4.03;;;3.63;;
12970;SDS011;6550;48.650;8.774;2023-01-29T03:23:56;3.93;;;3.47;;
12970;SDS011;6550;48.650;8.774;2023-01-29T03:26:43;3.70;;;3.40;;
12970;SDS011;6550;48.650;8.774;2023-01-29T03:29:30;4.20;;;3.80;;
12970;SDS011;6550;48.650;8.774;2023-01-29T03:32:17;3.93;;;3.53;;
12970;SDS011;6550;48.650;8.774;2023-01-29T03:34:50;4.43;;;4.03;;
12970;SDS011;6550;48.650;8.774;2023-01-29T03:37:22;4.30;;;3.83;;
12970;SDS011;6550;48.650;8.774;2023-01-29T03:39:51;4.30;;;3.90;;
12970;SDS011;6550;48.650;8.774;2023-01-29T03:42:23;5.17;;;3.80;;
12970;SDS011;6550;48.650;8.774;2023-01-29T03:47:50;5.13;;;3.80;;
12970;SDS011;6550;48.650;8.774;2023-01-29T03:50:36;4.22;;;3.92;;
12970;SDS011;6550;48.650;8.774;2023-01-29T03:58:38;3.70;;;3.37;;
12970;SDS011;6550;48.650;8.774;2023-01-29T04:01:18;3.57;;;3.27;;
12970;SDS011;6550;48.650;8.774;2023-01-29T04:03:52;5.17;;;4.13;;
12970;SDS011;6550;48.650;8.774;2023-01-29T04:06:25;4.00;;;3.60;;
12970;SDS011;6550;48.650;8.774;2023-01-29T04:11:37;3.90;;;3.60;;
12970;SDS011;6550;48.650;8.774;2023-01-29T04:14:10;4.10;;;3.70;;
12970;SDS011;6550;48.650;8.774;2023-01-29T04:16:40;3.87;;;3.43;;
12970;SDS011;6550;48.650;8.774;2023-01-29T04:19:12;3.90;;;3.60;;
12970;SDS011;6550;48.650;8.774;2023-01-29T04:21:39;3.60;;;3.30;;
12970;SDS011;6550;48.650;8.774;2023-01-29T04:24:09;5.73;;;4.33;;
12970;SDS011;6550;48.650;8.774;2023-01-29T04:32:27;4.30;;;3.87;;
12970;SDS011;6550;48.650;8.774;2023-01-29T04:35:00;4.10;;;3.70;;
12970;SDS011;6550;48.650;8.774;2023-01-29T04:40:08;4.37;;;3.97;;
12970;SDS011;6550;48.650;8.774;2023-01-29T04:51:05;4.33;;;3.93;;
12970;SDS011;6550;48.650;8.774;2023-01-29T04:54:13;4.73;;;3.97;;
12970;SDS011;6550;48.650;8.774;2023-01-29T04:59:31;5.27;;;4.27;;
12970;SDS011;6550;48.650;8.774;2023-01-29T05:02:01;4.27;;;3.77;;
12970;SDS011;6550;48.650;8.774;2023-01-29T05:04:33;4.33;;;3.93;;
12970;SDS011;6550;48.650;8.774;2023-01-29T05:07:01;4.10;;;3.70;;
12970;SDS011;6550;48.650;8.774;2023-01-29T05:09:31;4.57;;;4.10;;
12970;SDS011;6550;48.650;8.774;2023-01-29T05:11:59;4.68;;;4.28;;
12970;SDS011;6550;48.650;8.774;2023-01-29T05:14:27;4.23;;;3.80;;
12970;SDS011;6550;48.650;8.774;2023-01-29T05:17:01;4.13;;;3.80;;
12970;SDS011;6550;48.650;8.774;2023-01-29T05:19:30;4.10;;;3.80;;
12970;SDS011;6550;48.650;8.774;2023-01-29T05:21:57;4.30;;;3.90;;
12970;SDS011;6550;48.650;8.774;2023-01-29T05:24:29;4.45;;;4.05;;
12970;SDS011;6550;48.650;8.774;2023-01-29T05:26:58;3.83;;;3.53;;
12970;SDS011;6550;48.650;8.774;2023-01-29T05:29:44;4.20;;;3.80;;
12970;SDS011;6550;48.650;8.774;2023-01-29T05:32:12;4.17;;;3.77;;
12970;SDS011;6550;48.650;8.774;2023-01-29T05:34:39;4.10;;;3.70;;
12970;SDS011;6550;48.650;8.774;2023-01-29T05:37:06;4.17;;;3.77;;
12970;SDS011;6550;48.650;8.774;2023-01-29T05:39:34;3.97;;;3.60;;
12970;SDS011;6550;48.650;8.774;2023-01-29T05:42:03;4.03;;;3.67;;
12970;SDS011;6550;48.650;8.774;2023-01-29T05:44:32;4.10;;;3.70;;
12970;SDS011;6550;48.650;8.774;2023-01-29T05:46:59;5.00;;;4.13;;
12970;SDS011;6550;48.650;8.774;2023-01-29T05:49:27;4.30;;;3.60;;
12970;SDS011;6550;48.650;8.774;2023-01-29T05:51:56;4.50;;;4.10;;
12970;SDS011;6550;48.650;8.774;2023-01-29T05:54:23;4.30;;;3.90;;
12970;SDS011;6550;48.650;8.774;2023-01-29T05:56:50;4.57;;;4.17;;
12970;SDS011;6550;48.650;8.774;2023-01-29T05:59:17;4.90;;;4.17;;
12970;SDS011;6550;48.650;8.774;2023-01-29T06:01:44;4.60;;;4.20;;
12970;SDS011;6550;48.650;8.774;2023-01-29T06:04:15;3.77;;;3.47;;
12970;SDS011;6550;48.650;8.774;2023-01-29T06:06:44;4.63;;;4.13;;
12970;SDS011;6550;48.650;8.774;2023-01-29T06:09:13;4.20;;;3.80;;
12970;SDS011;6550;48.650;8.774;2023-01-29T06:11:42;4.23;;;3.83;;
12970;SDS011;6550;48.650;8.774;2023-01-29T06:14:11;4.57;;;4.17;;
12970;SDS011;6550;48.650;8.774;2023-01-29T06:16:40;4.43;;;4.03;;
12970;SDS011;6550;48.650;8.774;2023-01-29T06:19:07;5.00;;;4.50;;
12970;SDS011;6550;48.650;8.774;2023-01-29T06:21:33;5.17;;;4.67;;
12970;SDS011;6550;48.650;8.774;2023-01-29T06:24:05;5.00;;;4.50;;
12970;SDS011;6550;48.650;8.774;2023-01-29T06:26:35;4.63;;;4.20;;
12970;SDS011;6550;48.650;8.774;2023-01-29T06:29:01;5.13;;;4.63;;
12970;SDS011;6550;48.650;8.774;2023-01-29T06:31:28;4.87;;;4.30;;
12970;SDS011;6550;48.650;8.774;2023-01-29T06:34:05;5.63;;;4.37;;
12970;SDS011;6550;48.650;8.774;2023-01-29T06:36:34;4.20;;;3.80;;
12970;SDS011;6550;48.650;8.774;2023-01-29T06:39:03;4.90;;;4.40;;
12970;SDS011;6550;48.650;8.774;2023-01-29T06:41:30;4.83;;;4.43;;
12970;SDS011;6550;48.650;8.774;2023-01-29T06:43:57;5.77;;;4.67;;
12970;SDS011;6550;48.650;8.774;2023-01-29T06:46:24;5.00;;;4.50;;
12970;SDS011;6550;48.650;8.774;2023-01-29T06:48:53;4.60;;;4.20;;
12970;SDS011;6550;48.650;8.774;2023-01-29T06:51:22;5.07;;;4.57;;
12970;SDS011;6550;48.650;8.774;2023-01-29T06:53:49;5.00;;;4.33;;
12970;SDS011;6550;48.650;8.774;2023-01-29T06:56:16;5.10;;;4.60;;
12970;SDS011;6550;48.650;8.774;2023-01-29T06:58:43;5.00;;;4.50;;
12970;SDS011;6550;48.650;8.774;2023-01-29T07:01:10;4.73;;;4.27;;
12970;SDS011;6550;48.650;8.774;2023-01-29T07:03:50;5.73;;;5.00;;
12970;SDS011;6550;48.650;8.774;2023-01-29T07:06:17;5.13;;;4.57;;
12970;SDS011;6550;48.650;8.774;2023-01-29T07:08:44;5.60;;;5.03;;
12970;SDS011;6550;48.650;8.774;2023-01-29T07:11:13;6.20;;;5.60;;
12970;SDS011;6550;48.650;8.774;2023-01-29T07:13:40;6.38;;;5.80;;
12970;SDS011;6550;48.650;8.774;2023-01-29T07:16:07;5.80;;;5.30;;
12970;SDS011;6550;48.650;8.774;2023-01-29T07:18:36;5.77;;;5.27;;
12970;SDS011;6550;48.650;8.774;2023-01-29T07:21:03;5.07;;;4.57;;
12970;SDS011;6550;48.650;8.774;2023-01-29T07:23:32;6.70;;;6.00;;
12970;SDS011;6550;48.650;8.774;2023-01-29T07:26:02;5.93;;;5.20;;
12970;SDS011;6550;48.650;8.774;2023-01-29T07:28:30;5.73;;;5.23;;
12970;SDS011;6550;48.650;8.774;2023-01-29T07:31:02;6.50;;;5.90;;
12970;SDS011;6550;48.650;8.774;2023-01-29T07:33:30;6.40;;;5.63;;
12970;SDS011;6550;48.650;8.774;2023-01-29T07:35:57;6.57;;;5.87;;
12970;SDS011;6550;48.650;8.774;2023-01-29T07:38:26;6.07;;;5.50;;
12970;SDS011;6550;48.650;8.774;2023-01-29T07:40:53;6.27;;;5.67;;
12970;SDS011;6550;48.650;8.774;2023-01-29T07:43:29;6.13;;;5.53;;
12970;SDS011;6550;48.650;8.774;2023-01-29T07:46:02;7.07;;;6.07;;
12970;SDS011;6550;48.650;8.774;2023-01-29T07:48:31;6.77;;;6.07;;
12970;SDS011;6550;48.650;8.774;2023-01-29T07:51:01;7.13;;;6.43;;
12970;SDS011;6550;48.650;8.774;2023-01-29T07:53:32;6.60;;;5.90;;
12970;SDS011;6550;48.650;8.774;2023-01-29T07:55:59;6.97;;;6.20;;
12970;SDS011;6550;48.650;8.774;2023-01-29T07:58:28;6.80;;;5.90;;
12970;SDS011;6550;48.650;8.774;2023-01-29T08:00:55;6.50;;;5.90;;
12970;SDS011;6550;48.650;8.774;2023-01-29T08:03:24;6.50;;;5.67;;
12970;SDS011;6550;48.650;8.774;2023-01-29T08:05:52;7.13;;;6.40;;
12970;SDS011;6550;48.650;8.774;2023-01-29T08:08:19;7.72;;;6.93;;
12970;SDS011;6550;48.650;8.774;2023-01-29T08:10:48;6.37;;;5.77;;
12970;SDS011;6550;48.650;8.774;2023-01-29T08:13:17;6.97;;;6.20;;
12970;SDS011;6550;48.650;8.774;2023-01-29T08:15:44;7.20;;;6.00;;
12970;SDS011;6550;48.650;8.774;2023-01-29T08:18:13;7.07;;;6.37;;
12970;SDS011;6550;48.650;8.774;2023-01-29T08:20:40;7.40;;;6.70;;
12970;SDS011;6550;48.650;8.774;2023-01-29T08:23:12;6.27;;;5.50;;
12970;SDS011;6550;48.650;8.774;2023-01-29T08:25:41;7.07;;;6.37;;
12970;SDS011;6550;48.650;8.774;2023-01-29T08:28:10;6.83;;;5.97;;
12970;SDS011;6550;48.650;8.774;2023-01-29T08:30:37;6.47;;;5.87;;
12970;SDS011;6550;48.650;8.774;2023-01-29T08:33:06;7.30;;;6.13;;
12970;SDS011;6550;48.650;8.774;2023-01-29T08:35:33;6.70;;;6.00;;
12970;SDS011;6550;48.650;8.774;2023-01-29T08:38:04;6.83;;;6.03;;
12970;SDS011;6550;48.650;8.774;2023-01-29T08:40:34;6.63;;;6.03;;
12970;SDS011;6550;48.650;8.774;2023-01-29T08:43:04;6.70;;;6.00;;
12970;SDS011;6550;48.650;8.774;2023-01-29T08:45:35;6.60;;;5.97;;
12970;SDS011;6550;48.650;8.774;2023-01-29T08:48:06;6.70;;;6.00;;
12970;SDS011;6550;48.650;8.774;2023-01-29T08:50:34;6.83;;;6.20;;
12970;SDS011;6550;48.650;8.774;2023-01-29T08:53:02;6.70;;;6.03;;
12970;SDS011;6550;48.650;8.774;2023-01-29T08:55:34;6.87;;;5.70;;
12970;SDS011;6550;48.650;8.774;2023-01-29T08:58:04;7.30;;;6.60;;
12970;SDS011;6550;48.650;8.774;2023-01-29T09:00:32;6.87;;;6.00;;
12970;SDS011;6550;48.650;8.774;2023-01-29T09:02:59;7.30;;;6.13;;
12970;SDS011;6550;48.650;8.774;2023-01-29T09:05:29;10.27;;;6.50;;
12970;SDS011;6550;48.650;8.774;2023-01-29T09:07:58;8.93;;;5.70;;
12970;SDS011;6550;48.650;8.774;2023-01-29T09:10:25;14.17;;;7.00;;
12970;SDS011;6550;48.650;8.774;2023-01-29T09:12:54;9.47;;;6.40;;
12970;SDS011;6550;48.650;8.774;2023-01-29T09:15:23;14.37;;;6.63;;
12970;SDS011;6550;48.650;8.774;2023-01-29T09:17:53;8.07;;;6.27;;
12970;SDS011;6550;48.650;8.774;2023-01-29T09:20:22;10.90;;;6.17;;
12970;SDS011;6550;48.650;8.774;2023-01-29T09:22:51;11.63;;;6.43;;
12970;SDS011;6550;48.650;8.774;2023-01-29T09:25:21;10.43;;;7.20;;
12970;SDS011;6550;48.650;8.774;2023-01-29T09:27:48;9.77;;;7.13;;
12970;SDS011;6550;48.650;8.774;2023-01-29T09:30:17;11.20;;;6.73;;
12970;SDS011;6550;48.650;8.774;2023-01-29T09:32:46;13.30;;;7.07;;
12970;SDS011;6550;48.650;8.774;2023-01-29T09:35:23;10.50;;;7.00;;
12970;SDS011;6550;48.650;8.774;2023-01-29T09:37:50;9.57;;;7.70;;
12970;SDS011;6550;48.650;8.774;2023-01-29T09:42:54;9.63;;;7.72;;
12970;SDS011;6550;48.650;8.774;2023-01-29T09:45:35;12.30;;;7.10;;
12970;SDS011;6550;48.650;8.774;2023-01-29T09:48:12;11.33;;;7.13;;
12970;SDS011;6550;48.650;8.774;2023-01-29T09:50:42;8.03;;;6.67;;
12970;SDS011;6550;48.650;8.774;2023-01-29T09:58:31;7.47;;;6.40;;
12970;SDS011;6550;48.650;8.774;2023-01-29T10:01:05;7.20;;;6.50;;
12970;SDS011;6550;48.650;8.774;2023-01-29T10:03:54;12.43;;;7.20;;
12970;SDS011;6550;48.650;8.774;2023-01-29T10:25:53;14.10;;;7.37;;
12970;SDS011;6550;48.650;8.774;2023-01-29T10:30:59;15.55;;;7.40;;
12970;SDS011;6550;48.650;8.774;2023-01-29T10:33:37;12.43;;;7.50;;
12970;SDS011;6550;48.650;8.774;2023-01-29T10:36:30;10.13;;;6.47;;
12970;SDS011;6550;48.650;8.774;2023-01-29T10:39:16;11.77;;;6.90;;
12970;SDS011;6550;48.650;8.774;2023-01-29T10:55:27;14.00;;;6.53;;
12970;SDS011;6550;48.650;8.774;2023-01-29T11:00:49;17.07;;;7.00;;
12970;SDS011;6550;48.650;8.774;2023-01-29T11:08:47;13.03;;;6.40;;
12970;SDS011;6550;48.650;8.774;2023-01-29T11:11:15;9.47;;;6.27;;
12970;SDS011;6550;48.650;8.774;2023-01-29T11:16:38;14.43;;;6.80;;
12970;SDS011;6550;48.650;8.774;2023-01-29T11:19:14;8.47;;;6.13;;
12970;SDS011;6550;48.650;8.774;2023-01-29T11:24:39;9.10;;;7.03;;
12970;SDS011;6550;48.650;8.774;2023-01-29T11:27:42;8.57;;;6.83;;
12970;SDS011;6550;48.650;8.774;2023-01-29T11:32:59;19.63;;;7.00;;
12970;SDS011;6550;48.650;8.774;2023-01-29T11:35:32;19.23;;;7.87;;
12970;SDS011;6550;48.650;8.774;2023-01-29T11:38:15;24.03;;;7.70;;
12970;SDS011;6550;48.650;8.774;2023-01-29T11:41:06;15.23;;;5.47;;
12970;SDS011;6550;48.650;8.774;2023-01-29T11:43:40;19.63;;;6.63;;
12970;SDS011;6550;48.650;8.774;2023-01-29T11:46:13;14.77;;;6.87;;
12970;SDS011;6550;48.650;8.774;2023-01-29T11:51:20;26.47;;;6.67;;
12970;SDS011;6550;48.650;8.774;2023-01-29T11:53:54;29.90;;;6.60;;
12970;SDS011;6550;48.650;8.774;2023-01-29T11:59:06;23.80;;;6.67;;
12970;SDS011;6550;48.650;8.774;2023-01-29T12:01:50;19.53;;;7.23;;
12970;SDS011;6550;48.650;8.774;2023-01-29T12:04:21;23.77;;;8.10;;
12970;SDS011;6550;48.650;8.774;2023-01-29T12:06:53;14.20;;;6.97;;
12970;SDS011;6550;48.650;8.774;2023-01-29T12:09:23;14.82;;;7.32;;
12970;SDS011;6550;48.650;8.774;2023-01-29T12:11:53;9.30;;;7.13;;
12970;SDS011;6550;48.650;8.774;2023-01-29T12:14:39;16.87;;;7.93;;
12970;SDS011;6550;48.650;8.774;2023-01-29T12:17:11;21.03;;;7.17;;
12970;SDS011;6550;48.650;8.774;2023-01-29T12:19:52;19.47;;;7.47;;
12970;SDS011;6550;48.650;8.774;2023-01-29T12:22:41;18.03;;;7.10;;
12970;SDS011;6550;48.650;8.774;2023-01-29T12:36:31;11.03;;;7.47;;
12970;SDS011;6550;48.650;8.774;2023-01-29T12:39:07;12.40;;;7.73;;
12970;SDS011;6550;48.650;8.774;2023-01-29T12:41:46;11.18;;;7.55;;
12970;SDS011;6550;48.650;8.774;2023-01-29T12:44:29;11.83;;;7.77;;
12970;SDS011;6550;48.650;8.774;2023-01-29T12:47:13;10.10;;;7.00;;
12970;SDS011;6550;48.650;8.774;2023-01-29T12:49:56;8.90;;;6.90;;
12970;SDS011;6550;48.650;8.774;2023-01-29T12:57:56;13.07;;;7.57;;
12970;SDS011;6550;48.650;8.774;2023-01-29T13:00:38;8.60;;;7.30;;
12970;SDS011;6550;48.650;8.774;2023-01-29T13:03:26;8.50;;;7.43;;
12970;SDS011;6550;48.650;8.774;2023-01-29T13:06:11;7.70;;;6.87;;
12970;SDS011;6550;48.650;8.774;2023-01-29T13:08:44;8.37;;;7.43;;
12970;SDS011;6550;48.650;8.774;2023-01-29T13:13:58;8.40;;;6.77;;
12970;SDS011;6550;48.650;8.774;2023-01-29T13:16:40;7.63;;;6.83;;
12970;SDS011;6550;48.650;8.774;2023-01-29T13:19:19;14.60;;;7.13;;
12970;SDS011;6550;48.650;8.774;2023-01-29T13:21:53;7.13;;;6.47;;
12970;SDS011;6550;48.650;8.774;2023-01-29T13:24:22;8.87;;;6.70;;
12970;SDS011;6550;48.650;8.774;2023-01-29T13:26:51;9.15;;;7.05;;
12970;SDS011;6550;48.650;8.774;2023-01-29T13:29:22;7.80;;;6.50;;
12970;SDS011;6550;48.650;8.774;2023-01-29T13:31:56;7.47;;;6.53;;
12970;SDS011;6550;48.650;8.774;2023-01-29T13:37:01;10.33;;;6.37;;
12970;SDS011;6550;48.650;8.774;2023-01-29T13:39:38;7.90;;;7.10;;
12970;SDS011;6550;48.650;8.774;2023-01-29T13:42:16;12.07;;;6.73;;
12970;SDS011;6550;48.650;8.774;2023-01-29T13:44:47;7.47;;;6.67;;
12970;SDS011;6550;48.650;8.774;2023-01-29T13:47:22;9.30;;;7.10;;
12970;SDS011;6550;48.650;8.774;2023-01-29T13:57:50;9.77;;;8.73;;
12970;SDS011;6550;48.650;8.774;2023-01-29T14:10:31;11.33;;;9.70;;
12970;SDS011;6550;48.650;8.774;2023-01-29T14:15:32;12.60;;;9.80;;
12970;SDS011;6550;48.650;8.774;2023-01-29T14:20:37;10.17;;;9.07;;
12970;SDS011;6550;48.650;8.774;2023-01-29T14:29:06;10.50;;;9.03;;
12970;SDS011;6550;48.650;8.774;2023-01-29T14:34:33;9.33;;;8.33;;
12970;SDS011;6550;48.650;8.774;2023-01-29T14:39:46;9.53;;;8.60;;
12970;SDS011;6550;48.650;8.774;2023-01-29T14:42:17;9.60;;;8.67;;
12970;SDS011;6550;48.650;8.774;2023-01-29T14:47:19;10.27;;;8.87;;
12970;SDS011;6550;48.650;8.774;2023-01-29T14:49:47;9.77;;;8.67;;
12970;SDS011;6550;48.650;8.774;2023-01-29T14:52:16;9.83;;;8.43;;
12970;SDS011;6550;48.650;8.774;2023-01-29T14:54:45;11.82;;;10.73;;
12970;SDS011;6550;48.650;8.774;2023-01-29T14:57:16;9.00;;;7.97;;
12970;SDS011;6550;48.650;8.774;2023-01-29T14:59:53;10.63;;;8.57;;
12970;SDS011;6550;48.650;8.774;2023-01-29T15:02:25;8.73;;;7.67;;
12970;SDS011;6550;48.650;8.774;2023-01-29T15:05:03;9.47;;;8.20;;
12970;SDS011;6550;48.650;8.774;2023-01-29T15:07:33;10.13;;;8.40;;
12970;SDS011;6550;48.650;8.774;2023-01-29T15:10:18;9.50;;;8.60;;
12970;SDS011;6550;48.650;8.774;2023-01-29T15:12:55;9.50;;;8.07;;
12970;SDS011;6550;48.650;8.774;2023-01-29T15:15:50;9.97;;;8.60;;
12970;SDS011;6550;48.650;8.774;2023-01-29T15:18:32;9.00;;;8.10;;
12970;SDS011;6550;48.650;8.774;2023-01-29T15:21:15;9.93;;;8.57;;
12970;SDS011;6550;48.650;8.774;2023-01-29T15:23:43;9.90;;;8.82;;
12970;SDS011;6550;48.650;8.774;2023-01-29T15:26:22;9.17;;;8.27;;
12970;SDS011;6550;48.650;8.774;2023-01-29T15:28:56;9.83;;;8.27;;
12970;SDS011;6550;48.650;8.774;2023-01-29T15:31:33;9.20;;;8.23;;
12970;SDS011;6550;48.650;8.774;2023-01-29T15:34:03;10.60;;;8.13;;
12970;SDS011;6550;48.650;8.774;2023-01-29T15:36:35;10.32;;;7.90;;
12970;SDS011;6550;48.650;8.774;2023-01-29T15:41:40;9.77;;;7.87;;
12970;SDS011;6550;48.650;8.774;2023-01-29T15:44:18;8.60;;;7.70;;
12970;SDS011;6550;48.650;8.774;2023-01-29T15:46:59;10.13;;;8.37;;
12970;SDS011;6550;48.650;8.774;2023-01-29T15:49:30;9.03;;;8.10;;
12970;SDS011;6550;48.650;8.774;2023-01-29T15:51:58;9.10;;;8.20;;
12970;SDS011;6550;48.650;8.774;2023-01-29T15:54:29;9.57;;;8.60;;
12970;SDS011;6550;48.650;8.774;2023-01-29T15:57:01;8.83;;;7.93;;
12970;SDS011;6550;48.650;8.774;2023-01-29T15:59:30;11.53;;;7.77;;
12970;SDS011;6550;48.650;8.774;2023-01-29T16:05:03;9.53;;;8.50;;
12970;SDS011;6550;48.650;8.774;2023-01-29T16:07:32;8.50;;;7.60;;
12970;SDS011;6550;48.650;8.774;2023-01-29T16:10:00;8.80;;;7.90;;
12970;SDS011;6550;48.650;8.774;2023-01-29T16:12:31;8.60;;;7.50;;
12970;SDS011;6550;48.650;8.774;2023-01-29T16:14:59;8.83;;;7.93;;
12970;SDS011;6550;48.650;8.774;2023-01-29T16:17:31;9.07;;;7.90;;
12970;SDS011;6550;48.650;8.774;2023-01-29T16:20:06;9.23;;;7.33;;
12970;SDS011;6550;48.650;8.774;2023-01-29T16:22:54;8.40;;;7.30;;
12970;SDS011;6550;48.650;8.774;2023-01-29T16:25:21;11.10;;;8.20;;
12970;SDS011;6550;48.650;8.774;2023-01-29T16:27:49;8.37;;;7.33;;
12970;SDS011;6550;48.650;8.774;2023-01-29T16:30:19;8.20;;;7.20;;
12970;SDS011;6550;48.650;8.774;2023-01-29T16:32:52;8.27;;;7.27;;
12970;SDS011;6550;48.650;8.774;2023-01-29T16:35:25;8.33;;;7.33;;
12970;SDS011;6550;48.650;8.774;2023-01-29T16:37:56;8.53;;;7.00;;
12970;SDS011;6550;48.650;8.774;2023-01-29T16:40:30;7.80;;;6.93;;
12970;SDS011;6550;48.650;8.774;2023-01-29T16:43:44;8.80;;;6.87;;
12970;SDS011;6550;48.650;8.774;2023-01-29T16:46:18;9.03;;;6.33;;
12970;SDS011;6550;48.650;8.774;2023-01-29T16:48:51;7.70;;;6.33;;
12970;SDS011;6550;48.650;8.774;2023-01-29T16:51:24;7.73;;;6.50;;
12970;SDS011;6550;48.650;8.774;2023-01-29T16:53:54;7.23;;;6.27;;
12970;SDS011;6550;48.650;8.774;2023-01-29T16:56:38;7.00;;;5.97;;
12970;SDS011;6550;48.650;8.774;2023-01-29T16:59:05;9.40;;;7.03;;
12970;SDS011;6550;48.650;8.774;2023-01-29T17:01:38;7.13;;;6.27;;
12970;SDS011;6550;48.650;8.774;2023-01-29T17:04:22;8.40;;;6.90;;
12970;SDS011;6550;48.650;8.774;2023-01-29T17:06:53;6.90;;;5.93;;
12970;SDS011;6550;48.650;8.774;2023-01-29T17:09:33;6.75;;;5.60;;
12970;SDS011;6550;48.650;8.774;2023-01-29T17:12:03;6.33;;;5.73;;
12970;SDS011;6550;48.650;8.774;2023-01-29T17:14:32;6.83;;;5.80;;
12970;SDS011;6550;48.650;8.774;2023-01-29T17:19:28;7.97;;;5.70;;
12970;SDS011;6550;48.650;8.774;2023-01-29T17:21:57;7.30;;;5.70;;
12970;SDS011;6550;48.650;8.774;2023-01-29T17:24:25;26.57;;;7.00;;
12970;SDS011;6550;48.650;8.774;2023-01-29T17:26:52;10.33;;;6.20;;
12970;SDS011;6550;48.650;8.774;2023-01-29T17:29:23;8.07;;;5.30;;
12970;SDS011;6550;48.650;8.774;2023-01-29T17:31:52;11.60;;;6.20;;
12970;SDS011;6550;48.650;8.774;2023-01-29T17:34:21;7.93;;;5.90;;
12970;SDS011;6550;48.650;8.774;2023-01-29T17:36:49;9.67;;;6.10;;
12970;SDS011;6550;48.650;8.774;2023-01-29T17:41:47;9.60;;;5.45;;
12970;SDS011;6550;48.650;8.774;2023-01-29T17:44:16;6.57;;;5.63;;
12970;SDS011;6550;48.650;8.774;2023-01-29T17:46:43;6.07;;;5.00;;
12970;SDS011;6550;48.650;8.774;2023-01-29T17:49:19;10.33;;;5.70;;
12970;SDS011;6550;48.650;8.774;2023-01-29T17:51:51;7.10;;;5.97;;
12970;SDS011;6550;48.650;8.774;2023-01-29T17:54:21;7.23;;;5.60;;
12970;SDS011;6550;48.650;8.774;2023-01-29T17:56:51;7.80;;;5.53;;
12970;SDS011;6550;48.650;8.774;2023-01-29T17:59:19;6.50;;;5.30;;
12970;SDS011;6550;48.650;8.774;2023-01-29T18:01:48;7.77;;;5.70;;
12970;SDS011;6550;48.650;8.774;2023-01-29T18:04:16;6.63;;;5.97;;
12970;SDS011;6550;48.650;8.774;2023-01-29T18:06:44;6.13;;;5.40;;
12970;SDS011;6550;48.650;8.774;2023-01-29T18:09:14;7.13;;;5.87;;
12970;SDS011;6550;48.650;8.774;2023-01-29T18:11:44;25.03;;;5.67;;
12970;SDS011;6550;48.650;8.774;2023-01-29T18:14:14;8.20;;;6.00;;
12970;SDS011;6550;48.650;8.774;2023-01-29T18:16:41;7.25;;;6.00;;
12970;SDS011;6550;48.650;8.774;2023-01-29T18:19:13;7.07;;;5.57;;
12970;SDS011;6550;48.650;8.774;2023-01-29T18:21:43;6.57;;;5.50;;
12970;SDS011;6550;48.650;8.774;2023-01-29T18:24:10;6.87;;;5.30;;
12970;SDS011;6550;48.650;8.774;2023-01-29T18:26:37;6.10;;;5.10;;
12970;SDS011;6550;48.650;8.774;2023-01-29T18:29:04;12.30;;;5.60;;
12970;SDS011;6550;48.650;8.774;2023-01-29T18:31:31;7.87;;;5.67;;
12970;SDS011;6550;48.650;8.774;2023-01-29T18:34:00;5.87;;;5.27;;
12970;SDS011;6550;48.650;8.774;2023-01-29T18:36:27;6.97;;;5.60;;
12970;SDS011;6550;48.650;8.774;2023-01-29T18:38:54;6.63;;;5.27;;